Time;durP1;ratioP1;P1;durP2;ratioP2;P2;SDS_P1;SDS_P2;PMS_P1;PMS_P2;Temp;Humidity;BMP_temperature;BMP_pressure;BME280_temperature;BME280_humidity;BME280_pressure;Samples;Min_cycle;Max_cycle;Signal;HPM_P1;HPM_P2
2023/02/25 00:01:02;;;;;;;11.00;1.67;;;;;;;;;;4981291;28;20551;-77
2023/02/25 00:03:27;;;;;;;4.73;1.13;;;;;;;;;;4976898;28;20202;-77
2023/02/25 00:05:52;;;;;;;6.43;1.43;;;;;;;;;;4979123;28;20968;-77
2023/02/25 00:08:18;;;;;;;4.23;1.47;;;;;;;;;;4977803;28;20197;-77
2023/02/25 00:10:43;;;;;;;5.17;1.80;;;;;;;;;;4976601;28;20643;-77
2023/02/25 00:13:08;;;;;;;5.50;1.17;;;;;;;;;;4977604;28;20300;-77
2023/02/25 00:15:34;;;;;;;6.43;1.43;;;;;;;;;;4978959;28;20639;-77
2023/02/25 00:17:59;;;;;;;5.57;1.60;;;;;;;;;;4978333;28;20166;-77
2023/02/25 00:20:25;;;;;;;7.60;1.20;;;;;;;;;;4980433;28;20186;-77
2023/02/25 00:22:50;;;;;;;8.97;1.27;;;;;;;;;;4975110;28;20268;-77
2023/02/25 00:25:16;;;;;;;6.03;1.40;;;;;;;;;;4969022;28;20417;-77
2023/02/25 00:27:42;;;;;;;2.03;0.80;;;;;;;;;;4959971;28;20208;-77
2023/02/25 00:30:09;;;;;;;1.90;0.70;;;;;;;;;;4982049;28;20568;-77
2023/02/25 00:32:35;;;;;;;2.40;0.73;;;;;;;;;;4980113;28;20579;-77
2023/02/25 00:35:00;;;;;;;3.60;0.83;;;;;;;;;;4978626;28;20496;-77
2023/02/25 00:37:26;;;;;;;3.40;0.80;;;;;;;;;;4978049;28;20225;-77
2023/02/25 00:39:51;;;;;;;5.10;0.90;;;;;;;;;;4981954;28;20174;-77
2023/02/25 00:42:17;;;;;;;3.33;0.80;;;;;;;;;;4982573;28;20537;-77
2023/02/25 00:44:44;;;;;;;7.00;2.00;;;;;;;;;;4982369;28;20185;-77
2023/02/25 00:47:09;;;;;;;3.17;1.00;;;;;;;;;;4980580;28;20428;-78
2023/02/25 00:49:35;;;;;;;3.10;0.97;;;;;;;;;;4981404;28;20481;-77
2023/02/25 00:52:00;;;;;;;2.87;0.90;;;;;;;;;;4966134;28;20206;-77
2023/02/25 00:54:25;;;;;;;7.40;1.33;;;;;;;;;;4982252;28;20848;-77
2023/02/25 00:56:51;;;;;;;5.27;1.00;;;;;;;;;;4963518;28;20603;-77
2023/02/25 00:59:16;;;;;;;6.10;1.20;;;;;;;;;;4965577;28;20774;-77
2023/02/25 01:01:42;;;;;;;4.80;1.37;;;;;;;;;;4981475;28;20177;-77
2023/02/25 01:04:07;;;;;;;5.77;1.00;;;;;;;;;;4982424;28;20663;-77
2023/02/25 01:06:33;;;;;;;2.40;1.00;;;;;;;;;;4981777;28;20212;-77
2023/02/25 01:08:58;;;;;;;5.03;1.17;;;;;;;;;;4981231;28;20530;-77
2023/02/25 01:11:28;;;;;;;5.53;1.10;;;;;;;;;;4979808;28;20534;-77
2023/02/25 01:13:58;;;;;;;5.83;1.23;;;;;;;;;;4981428;28;20633;-77
2023/02/25 01:16:24;;;;;;;7.50;1.80;;;;;;;;;;4963880;28;20436;-77
2023/02/25 01:18:54;;;;;;;5.70;1.27;;;;;;;;;;4962222;28;20909;-77
2023/02/25 01:21:20;;;;;;;5.00;1.10;;;;;;;;;;4974723;28;20436;-78
2023/02/25 01:23:47;;;;;;;5.90;1.40;;;;;;;;;;4951286;28;20462;-77
2023/02/25 01:26:12;;;;;;;6.93;1.37;;;;;;;;;;4979076;28;20441;-76
2023/02/25 01:28:38;;;;;;;4.90;1.00;;;;;;;;;;4962222;28;20443;-77
2023/02/25 01:31:07;;;;;;;4.00;1.00;;;;;;;;;;4958373;28;20375;-76
2023/02/25 01:33:32;;;;;;;2.80;0.80;;;;;;;;;;4962602;28;20476;-78
2023/02/25 01:36:00;;;;;;;4.33;1.07;;;;;;;;;;4978156;28;20433;-77
2023/02/25 01:38:26;;;;;;;2.17;0.80;;;;;;;;;;4980060;28;20214;-77
2023/02/25 01:40:56;;;;;;;3.60;0.77;;;;;;;;;;4962032;28;20464;-77
2023/02/25 01:43:21;;;;;;;5.63;0.90;;;;;;;;;;4981824;28;20536;-77
2023/02/25 01:45:47;;;;;;;5.67;0.90;;;;;;;;;;4978594;28;20920;-77
2023/02/25 01:48:15;;;;;;;4.10;1.20;;;;;;;;;;4961969;28;20186;-77
2023/02/25 01:50:44;;;;;;;3.33;0.93;;;;;;;;;;4975657;28;20255;-77
2023/02/25 01:53:09;;;;;;;6.63;1.57;;;;;;;;;;4975631;28;20833;-76
2023/02/25 01:55:35;;;;;;;5.13;1.33;;;;;;;;;;4959304;28;20526;-77
2023/02/25 01:58:00;;;;;;;4.23;1.00;;;;;;;;;;4961111;28;20359;-77
2023/02/25 02:00:27;;;;;;;4.40;1.17;;;;;;;;;;4979050;28;20190;-77
2023/02/25 02:02:53;;;;;;;3.57;0.90;;;;;;;;;;4965623;28;20213;-77
2023/02/25 02:05:19;;;;;;;2.00;0.80;;;;;;;;;;4964000;28;21069;-77
2023/02/25 02:07:47;;;;;;;7.00;1.00;;;;;;;;;;4980073;28;20428;-76
2023/02/25 02:10:12;;;;;;;3.00;1.00;;;;;;;;;;4964564;28;20465;-77
2023/02/25 02:12:40;;;;;;;3.77;0.97;;;;;;;;;;4981703;28;20468;-77
2023/02/25 02:15:08;;;;;;;4.13;1.00;;;;;;;;;;4968378;28;20424;-77
2023/02/25 02:17:48;;;;;;;3.97;0.93;;;;;;;;;;4982263;28;20841;-77
2023/02/25 02:20:23;;;;;;;4.07;1.40;;;;;;;;;;4968318;28;20482;-77
2023/02/25 02:23:05;;;;;;;2.90;0.90;;;;;;;;;;4979680;28;20478;-77
2023/02/25 02:25:36;;;;;;;5.30;1.57;;;;;;;;;;4979653;28;20504;-76
2023/02/25 02:28:22;;;;;;;7.37;1.40;;;;;;;;;;4967829;28;20441;-76
2023/02/25 02:31:06;;;;;;;7.93;1.33;;;;;;;;;;4943289;28;20551;-77
2023/02/25 02:33:43;;;;;;;3.83;1.10;;;;;;;;;;4986020;28;20448;-77
2023/02/25 02:36:14;;;;;;;1.93;0.83;;;;;;;;;;4981065;28;20428;-77
2023/02/25 02:38:55;;;;;;;5.33;1.27;;;;;;;;;;4981854;28;20434;-77
2023/02/25 02:41:30;;;;;;;5.93;1.50;;;;;;;;;;4979217;28;20484;-77
2023/02/25 02:43:58;;;;;;;3.87;1.00;;;;;;;;;;4982113;28;20460;-76
2023/02/25 02:46:25;;;;;;;7.97;1.40;;;;;;;;;;4984153;28;20954;-76
2023/02/25 02:48:57;;;;;;;4.77;1.23;;;;;;;;;;4968056;28;20966;-76
2023/02/25 02:51:25;;;;;;;6.40;1.50;;;;;;;;;;4982818;28;20461;-77
2023/02/25 02:53:52;;;;;;;8.23;1.43;;;;;;;;;;4971952;28;20459;-76
2023/02/25 02:56:18;;;;;;;9.13;1.37;;;;;;;;;;4986170;28;20418;-76
2023/02/25 02:58:46;;;;;;;10.77;1.93;;;;;;;;;;4968381;28;20424;-76
2023/02/25 03:01:29;;;;;;;4.63;1.50;;;;;;;;;;4984021;28;20436;-76
2023/02/25 03:03:58;;;;;;;3.83;1.13;;;;;;;;;;4984370;28;20441;-76
2023/02/25 03:06:26;;;;;;;3.80;1.20;;;;;;;;;;4971701;28;20508;-76
2023/02/25 03:08:55;;;;;;;5.87;1.40;;;;;;;;;;4981151;28;20447;-76
2023/02/25 03:11:20;;;;;;;5.07;1.50;;;;;;;;;;4985923;28;21223;-76
2023/02/25 03:13:49;;;;;;;10.03;1.33;;;;;;;;;;4967196;28;20465;-74
2023/02/25 03:16:18;;;;;;;6.43;0.90;;;;;;;;;;4966091;28;20721;-76
2023/02/25 03:18:50;;;;;;;3.53;1.10;;;;;;;;;;4980168;28;20483;-76
2023/02/25 03:21:18;;;;;;;6.00;1.27;;;;;;;;;;4980356;28;20432;-77
2023/02/25 03:23:45;;;;;;;3.13;1.00;;;;;;;;;;4981404;28;20489;-77
2023/02/25 03:26:30;;;;;;;3.40;0.97;;;;;;;;;;4982458;28;20442;-76
2023/02/25 03:28:56;;;;;;;3.30;1.03;;;;;;;;;;4980327;28;20433;-76
2023/02/25 03:31:24;;;;;;;2.33;0.80;;;;;;;;;;4981481;28;20468;-76
2023/02/25 03:33:58;;;;;;;2.93;1.10;;;;;;;;;;4980479;28;20241;-77
2023/02/25 03:36:27;;;;;;;4.27;1.00;;;;;;;;;;4978348;28;20433;-77
2023/02/25 03:38:54;;;;;;;3.20;1.00;;;;;;;;;;4964259;28;20437;-76
2023/02/25 03:41:21;;;;;;;3.47;1.27;;;;;;;;;;4981482;28;20937;-76
2023/02/25 03:43:49;;;;;;;4.03;1.03;;;;;;;;;;4980677;28;20457;-76
2023/02/25 03:46:15;;;;;;;3.90;0.93;;;;;;;;;;4981261;28;20515;-76
2023/02/25 03:48:41;;;;;;;2.70;1.10;;;;;;;;;;4979797;28;20433;-76
2023/02/25 03:51:07;;;;;;;7.67;1.33;;;;;;;;;;4981681;28;20481;-76
2023/02/25 03:53:33;;;;;;;3.73;0.80;;;;;;;;;;4967939;28;20462;-75
2023/02/25 03:56:04;;;;;;;3.87;1.07;;;;;;;;;;4978777;28;20432;-76
2023/02/25 03:58:30;;;;;;;2.80;1.03;;;;;;;;;;4978696;28;20436;-76
2023/02/25 04:00:56;;;;;;;5.90;1.30;;;;;;;;;;4981107;28;20460;-75
2023/02/25 04:03:21;;;;;;;3.90;1.63;;;;;;;;;;4964723;28;20545;-76
2023/02/25 04:05:47;;;;;;;7.33;1.30;;;;;;;;;;4981887;28;20859;-76
2023/02/25 04:08:16;;;;;;;4.60;1.27;;;;;;;;;;4963370;28;20628;-76
2023/02/25 04:10:42;;;;;;;4.80;1.80;;;;;;;;;;4981021;28;20220;-75
2023/02/25 04:13:08;;;;;;;7.03;1.80;;;;;;;;;;4965976;28;20472;-76
2023/02/25 04:15:33;;;;;;;7.67;2.07;;;;;;;;;;4967292;28;20889;-75
2023/02/25 04:17:59;;;;;;;6.03;1.37;;;;;;;;;;4980300;28;20171;-75
2023/02/25 04:20:24;;;;;;;9.80;1.70;;;;;;;;;;4964698;28;20629;-76
2023/02/25 04:22:49;;;;;;;8.00;1.80;;;;;;;;;;4980661;28;20300;-76
2023/02/25 04:25:14;;;;;;;7.73;2.23;;;;;;;;;;4979623;28;20660;-76
2023/02/25 04:27:40;;;;;;;6.87;2.20;;;;;;;;;;4978593;28;20197;-76
2023/02/25 04:30:05;;;;;;;6.90;1.87;;;;;;;;;;4975518;28;20186;-76
2023/02/25 04:32:31;;;;;;;6.30;1.40;;;;;;;;;;4979255;28;20205;-76
2023/02/25 04:35:01;;;;;;;8.20;1.73;;;;;;;;;;4979473;28;20209;-76
2023/02/25 04:37:27;;;;;;;7.17;1.97;;;;;;;;;;4963187;28;20183;-76
2023/02/25 04:39:52;;;;;;;7.80;1.77;;;;;;;;;;4981250;28;20437;-76
2023/02/25 04:42:17;;;;;;;11.50;1.90;;;;;;;;;;4981984;28;20209;-76
2023/02/25 04:44:43;;;;;;;8.83;1.67;;;;;;;;;;4980090;28;20557;-76
2023/02/25 04:47:08;;;;;;;9.73;1.90;;;;;;;;;;4964631;28;20568;-76
2023/02/25 04:49:43;;;;;;;6.80;1.67;;;;;;;;;;4976745;28;20174;-76
2023/02/25 04:52:08;;;;;;;10.80;2.27;;;;;;;;;;4980586;28;20256;-76
2023/02/25 04:54:34;;;;;;;5.57;1.47;;;;;;;;;;4980999;28;20917;-76
2023/02/25 04:56:59;;;;;;;7.00;1.60;;;;;;;;;;4980589;28;20178;-76
2023/02/25 04:59:25;;;;;;;7.97;1.60;;;;;;;;;;4965729;28;20222;-76
2023/02/25 05:01:50;;;;;;;9.60;1.83;;;;;;;;;;4963810;28;20183;-76
2023/02/25 05:04:16;;;;;;;9.83;2.10;;;;;;;;;;4981346;28;20474;-76
2023/02/25 05:06:41;;;;;;;6.17;1.40;;;;;;;;;;4980753;28;20177;-76
2023/02/25 05:09:06;;;;;;;4.70;1.70;;;;;;;;;;4980805;28;20554;-76
2023/02/25 05:11:31;;;;;;;5.50;2.00;;;;;;;;;;4964407;28;20213;-76
2023/02/25 05:13:57;;;;;;;5.77;1.40;;;;;;;;;;4981162;28;20229;-76
2023/02/25 05:16:22;;;;;;;7.30;1.60;;;;;;;;;;4986474;23;21783;-72
2023/02/25 05:18:47;;;;;;;8.33;1.57;;;;;;;;;;4978854;28;20196;-73
2023/02/25 05:21:17;;;;;;;10.30;1.80;;;;;;;;;;4979503;28;20185;-72
2023/02/25 05:23:43;;;;;;;7.73;1.70;;;;;;;;;;4967475;28;20190;-73
2023/02/25 05:26:09;;;;;;;5.77;1.93;;;;;;;;;;4980302;28;20434;-72
2023/02/25 05:28:35;;;;;;;8.07;1.40;;;;;;;;;;4962153;28;20800;-72
2023/02/25 05:31:03;;;;;;;7.00;1.60;;;;;;;;;;4977876;28;20542;-72
2023/02/25 05:33:28;;;;;;;8.33;1.60;;;;;;;;;;4978469;28;20656;-72
2023/02/25 05:35:54;;;;;;;5.27;1.73;;;;;;;;;;4981599;28;20430;-72
2023/02/25 05:38:19;;;;;;;9.60;2.17;;;;;;;;;;4977725;28;20178;-73
2023/02/25 05:40:44;;;;;;;8.33;1.83;;;;;;;;;;4958583;28;20654;-73
2023/02/25 05:43:09;;;;;;;4.80;1.47;;;;;;;;;;4973720;28;20325;-72
2023/02/25 05:45:35;;;;;;;7.13;2.43;;;;;;;;;;4979960;28;20710;-72
2023/02/25 05:48:00;;;;;;;7.37;1.67;;;;;;;;;;4979246;28;20210;-72
2023/02/25 05:50:27;;;;;;;8.97;1.77;;;;;;;;;;4963779;28;20256;-73
2023/02/25 05:52:52;;;;;;;6.70;1.87;;;;;;;;;;4966941;28;20185;-72
2023/02/25 05:55:17;;;;;;;8.63;1.87;;;;;;;;;;4982311;28;20804;-73
2023/02/25 05:57:43;;;;;;;4.37;1.37;;;;;;;;;;4978237;28;20202;-72
2023/02/25 06:00:08;;;;;;;3.53;1.27;;;;;;;;;;4978078;28;20217;-72
2023/02/25 06:02:34;;;;;;;13.20;2.63;;;;;;;;;;4981923;28;20182;-73
2023/02/25 06:05:00;;;;;;;9.40;2.30;;;;;;;;;;4967804;28;20199;-73
2023/02/25 06:07:27;;;;;;;7.40;2.33;;;;;;;;;;4980633;28;20441;-73
2023/02/25 06:09:53;;;;;;;7.87;1.53;;;;;;;;;;4977551;28;20873;-73
2023/02/25 06:12:19;;;;;;;10.80;2.33;;;;;;;;;;4965285;28;20850;-72
2023/02/25 06:14:44;;;;;;;5.13;1.70;;;;;;;;;;4980695;28;20436;-73
2023/02/25 06:17:09;;;;;;;7.80;1.63;;;;;;;;;;4978766;28;20218;-73
2023/02/25 06:19:34;;;;;;;6.00;1.60;;;;;;;;;;4980818;28;20190;-73
2023/02/25 06:22:00;;;;;;;9.40;2.00;;;;;;;;;;4978665;28;20181;-72
2023/02/25 06:24:25;;;;;;;10.10;1.47;;;;;;;;;;4980566;28;20635;-72
2023/02/25 06:26:50;;;;;;;6.10;2.40;;;;;;;;;;4970202;28;20205;-72
2023/02/25 06:29:16;;;;;;;6.80;1.83;;;;;;;;;;4964927;28;20213;-72
2023/02/25 06:31:42;;;;;;;7.13;1.60;;;;;;;;;;4980660;28;20249;-73
2023/02/25 06:34:07;;;;;;;7.13;2.13;;;;;;;;;;4980829;28;20256;-73
2023/02/25 06:36:32;;;;;;;7.40;1.67;;;;;;;;;;4983619;28;20436;-73
2023/02/25 06:38:58;;;;;;;4.50;1.60;;;;;;;;;;4971377;28;20218;-73
2023/02/25 06:41:23;;;;;;;8.93;2.43;;;;;;;;;;4968330;28;20221;-72
2023/02/25 06:43:51;;;;;;;7.93;1.87;;;;;;;;;;4972016;28;20639;-72
2023/02/25 06:46:17;;;;;;;7.13;1.97;;;;;;;;;;4976135;28;20217;-72
2023/02/25 06:48:42;;;;;;;12.10;2.20;;;;;;;;;;4977026;28;20452;-72
2023/02/25 06:51:09;;;;;;;7.77;2.50;;;;;;;;;;4982927;28;20961;-72
2023/02/25 06:53:37;;;;;;;10.77;2.30;;;;;;;;;;4981868;28;20189;-73
2023/02/25 06:56:03;;;;;;;13.23;2.40;;;;;;;;;;4984675;28;20916;-72
2023/02/25 06:58:28;;;;;;;9.13;2.00;;;;;;;;;;4982350;28;20409;-72
2023/02/25 07:00:53;;;;;;;11.40;2.20;;;;;;;;;;4983322;28;20542;-73
2023/02/25 07:03:19;;;;;;;6.03;2.07;;;;;;;;;;4967442;28;20268;-72
2023/02/25 07:05:44;;;;;;;10.43;2.13;;;;;;;;;;4980809;28;20639;-72
2023/02/25 07:08:09;;;;;;;8.10;1.80;;;;;;;;;;4979041;28;20202;-72
2023/02/25 07:10:35;;;;;;;16.60;2.10;;;;;;;;;;4982932;28;20206;-72
2023/02/25 07:13:00;;;;;;;11.80;2.40;;;;;;;;;;4965060;28;20208;-72
2023/02/25 07:15:25;;;;;;;5.83;1.97;;;;;;;;;;4982686;28;20654;-73
2023/02/25 07:17:51;;;;;;;6.60;1.80;;;;;;;;;;4980340;28;20252;-73
2023/02/25 07:20:16;;;;;;;7.37;1.90;;;;;;;;;;4964189;28;20232;-73
2023/02/25 07:22:41;;;;;;;11.53;2.57;;;;;;;;;;4979452;28;20214;-72
2023/02/25 07:25:07;;;;;;;10.70;2.10;;;;;;;;;;4983377;28;20189;-73
2023/02/25 07:27:32;;;;;;;7.30;1.83;;;;;;;;;;4981083;28;20199;-72
2023/02/25 07:30:00;;;;;;;5.00;1.50;;;;;;;;;;4983196;28;20907;-72
2023/02/25 07:32:25;;;;;;;11.37;1.57;;;;;;;;;;4966751;28;20193;-73
2023/02/25 07:34:51;;;;;;;8.70;1.40;;;;;;;;;;4979911;28;20406;-72
2023/02/25 07:37:16;;;;;;;6.97;1.73;;;;;;;;;;4983417;28;21144;-72
2023/02/25 07:39:41;;;;;;;5.97;2.03;;;;;;;;;;4982083;28;20171;-72
2023/02/25 07:42:06;;;;;;;10.60;2.30;;;;;;;;;;4982698;28;20643;-72
2023/02/25 07:44:34;;;;;;;8.40;1.83;;;;;;;;;;4981812;28;20189;-72
2023/02/25 07:46:59;;;;;;;7.33;1.50;;;;;;;;;;4952691;28;20202;-72
2023/02/25 07:49:24;;;;;;;7.30;1.67;;;;;;;;;;4975611;28;20469;-72
2023/02/25 07:51:49;;;;;;;6.60;1.90;;;;;;;;;;4981387;28;20205;-73
2023/02/25 07:54:16;;;;;;;12.93;2.20;;;;;;;;;;4977922;28;20177;-72
2023/02/25 07:56:41;;;;;;;7.30;1.47;;;;;;;;;;4958726;28;20194;-73
2023/02/25 07:59:06;;;;;;;6.53;1.30;;;;;;;;;;4978297;28;20440;-72
2023/02/25 08:01:33;;;;;;;5.57;1.40;;;;;;;;;;4981642;28;20182;-72
2023/02/25 08:03:59;;;;;;;8.70;1.60;;;;;;;;;;4973175;28;20692;-72
2023/02/25 08:06:26;;;;;;;4.90;1.53;;;;;;;;;;4971630;28;20492;-72
2023/02/25 08:08:51;;;;;;;5.73;1.57;;;;;;;;;;4967008;28;20476;-72
2023/02/25 08:11:17;;;;;;;4.80;2.30;;;;;;;;;;4982252;28;21005;-72
2023/02/25 08:13:42;;;;;;;7.77;2.20;;;;;;;;;;4977967;28;20182;-72
2023/02/25 08:16:09;;;;;;;9.13;1.67;;;;;;;;;;4961486;28;20432;-73
2023/02/25 08:18:34;;;;;;;3.63;1.40;;;;;;;;;;4974369;28;20186;-72
2023/02/25 08:20:59;;;;;;;5.53;1.60;;;;;;;;;;4978462;28;20491;-73
2023/02/25 08:23:25;;;;;;;5.53;1.40;;;;;;;;;;4973446;28;20177;-73
2023/02/25 08:25:54;;;;;;;8.53;1.70;;;;;;;;;;4982545;28;20275;-74
2023/02/25 08:28:23;;;;;;;5.40;1.90;;;;;;;;;;4969875;28;20174;-72
2023/02/25 08:30:49;;;;;;;6.97;1.90;;;;;;;;;;4982788;28;20465;-72
2023/02/25 08:33:14;;;;;;;4.67;1.43;;;;;;;;;;4983865;28;20417;-72
2023/02/25 08:35:40;;;;;;;7.83;3.20;;;;;;;;;;4980824;28;20184;-72
2023/02/25 08:38:05;;;;;;;5.47;1.67;;;;;;;;;;4985080;28;20906;-72
2023/02/25 08:40:33;;;;;;;6.47;1.23;;;;;;;;;;4966077;28;20192;-72
2023/02/25 08:42:58;;;;;;;6.57;1.50;;;;;;;;;;4983836;28;20179;-72
2023/02/25 08:45:23;;;;;;;5.00;1.30;;;;;;;;;;4983768;28;20425;-73
2023/02/25 08:47:48;;;;;;;8.30;1.80;;;;;;;;;;4982653;28;21122;-72
2023/02/25 08:50:15;;;;;;;5.17;1.70;;;;;;;;;;4982128;28;20178;-72
2023/02/25 08:52:41;;;;;;;5.87;1.50;;;;;;;;;;4966824;28;20200;-72
2023/02/25 08:55:06;;;;;;;4.20;1.43;;;;;;;;;;4978627;28;20821;-72
2023/02/25 08:57:31;;;;;;;3.87;1.10;;;;;;;;;;4982058;28;20248;-73
2023/02/25 08:59:57;;;;;;;5.63;1.40;;;;;;;;;;4984257;28;20162;-72
2023/02/25 09:02:23;;;;;;;8.23;1.60;;;;;;;;;;4979009;28;20186;-73
2023/02/25 09:04:48;;;;;;;5.40;1.77;;;;;;;;;;4970426;28;20185;-73
2023/02/25 09:07:15;;;;;;;7.60;1.53;;;;;;;;;;4980893;28;20492;-73
2023/02/25 09:09:40;;;;;;;5.13;1.40;;;;;;;;;;4969302;28;20543;-73
2023/02/25 09:12:05;;;;;;;8.40;1.70;;;;;;;;;;4981742;28;20476;-73
2023/02/25 09:14:31;;;;;;;5.13;1.57;;;;;;;;;;4984624;28;20384;-72
2023/02/25 09:16:56;;;;;;;4.30;1.20;;;;;;;;;;4979905;28;20709;-73
2023/02/25 09:19:21;;;;;;;7.50;1.80;;;;;;;;;;4983822;28;20193;-73
2023/02/25 09:21:47;;;;;;;4.43;1.37;;;;;;;;;;4981266;28;20268;-73
2023/02/25 09:24:12;;;;;;;8.50;1.77;;;;;;;;;;4982212;28;20210;-72
2023/02/25 09:26:37;;;;;;;8.93;1.90;;;;;;;;;;4981063;28;20568;-73
2023/02/25 09:29:03;;;;;;;3.23;0.90;;;;;;;;;;4982059;28;20170;-72
2023/02/25 09:31:29;;;;;;;3.83;0.90;;;;;;;;;;4976395;28;20288;-72
2023/02/25 09:33:54;;;;;;;2.83;1.10;;;;;;;;;;4982805;28;20409;-72
2023/02/25 09:36:20;;;;;;;4.60;1.03;;;;;;;;;;4978802;28;20198;-72
2023/02/25 09:38:46;;;;;;;3.33;0.93;;;;;;;;;;4966124;28;20301;-73
2023/02/25 09:41:29;;;;;;;8.50;1.50;;;;;;;;;;4982513;28;20500;-73
2023/02/25 09:44:01;;;;;;;6.00;1.27;;;;;;;;;;4981036;28;20448;-72
2023/02/25 09:46:27;;;;;;;4.47;1.50;;;;;;;;;;4968962;28;20456;-73
2023/02/25 09:48:56;;;;;;;6.53;1.20;;;;;;;;;;4969115;28;20447;-72
2023/02/25 09:51:23;;;;;;;5.97;1.90;;;;;;;;;;4965123;28;20558;-73
2023/02/25 09:53:51;;;;;;;4.30;1.10;;;;;;;;;;4981025;28;20467;-73
2023/02/25 09:56:17;;;;;;;3.03;1.50;;;;;;;;;;4978335;28;20472;-72
2023/02/25 09:58:48;;;;;;;6.03;1.20;;;;;;;;;;4980319;28;20469;-73
2023/02/25 10:01:17;;;;;;;6.57;1.23;;;;;;;;;;4982291;28;20182;-72
2023/02/25 10:04:01;;;;;;;6.10;1.20;;;;;;;;;;4966326;28;20464;-72
2023/02/25 10:06:38;;;;;;;4.33;1.17;;;;;;;;;;4982677;28;20856;-72
2023/02/25 10:09:44;;;;;;;6.57;1.50;;;;;;;;;;4980150;28;20439;-73
2023/02/25 10:12:09;;;;;;;3.97;1.10;;;;;;;;;;4925279;29;20474;-73
2023/02/25 10:14:35;;;;;;;4.43;1.00;;;;;;;;;;4909724;29;20463;-73
2023/02/25 10:17:16;;;;;;;6.10;1.00;;;;;;;;;;4945134;28;20477;-73
2023/02/25 10:19:48;;;;;;;8.53;1.70;;;;;;;;;;4981887;28;20205;-73
2023/02/25 10:22:22;;;;;;;6.90;1.33;;;;;;;;;;4980139;28;20414;-73
2023/02/25 10:24:56;;;;;;;3.83;1.17;;;;;;;;;;4964425;28;20427;-73
2023/02/25 10:27:31;;;;;;;6.33;1.30;;;;;;;;;;4975329;28;20441;-73
2023/02/25 10:30:19;;;;;;;3.40;1.10;;;;;;;;;;4983120;28;20470;-72
2023/02/25 10:32:45;;;;;;;2.67;0.90;;;;;;;;;;4974719;28;20456;-73
2023/02/25 10:35:36;;;;;;;2.83;0.80;;;;;;;;;;4970409;28;20426;-73
2023/02/25 10:38:02;;;;;;;4.47;1.40;;;;;;;;;;4979689;28;20430;-73
2023/02/25 10:40:30;;;;;;;6.97;1.50;;;;;;;;;;4985095;28;20417;-72
2023/02/25 10:42:58;;;;;;;4.90;1.40;;;;;;;;;;4983967;28;20202;-72
2023/02/25 10:45:25;;;;;;;9.07;1.50;;;;;;;;;;4969692;28;20423;-72
2023/02/25 10:48:04;;;;;;;6.40;1.57;;;;;;;;;;4966282;28;20454;-72
2023/02/25 10:50:30;;;;;;;6.20;1.60;;;;;;;;;;4985532;28;20467;-72
2023/02/25 10:52:55;;;;;;;5.23;1.20;;;;;;;;;;4964304;28;20435;-72
2023/02/25 10:55:50;;;;;;;2.20;1.07;;;;;;;;;;4979738;28;20220;-72
2023/02/25 10:58:24;;;;;;;7.33;1.67;;;;;;;;;;4981358;28;20209;-72
2023/02/25 11:01:02;;;;;;;7.17;1.27;;;;;;;;;;4966390;28;21041;-72
2023/02/25 11:03:28;;;;;;;2.40;1.10;;;;;;;;;;4983992;28;20512;-72
2023/02/25 11:06:06;;;;;;;3.70;1.53;;;;;;;;;;4984528;28;20441;-72
2023/02/25 11:08:32;;;;;;;3.97;0.90;;;;;;;;;;4983287;28;20428;-72
2023/02/25 11:11:02;;;;;;;4.30;1.20;;;;;;;;;;4985098;28;20469;-72
2023/02/25 11:13:28;;;;;;;3.73;1.30;;;;;;;;;;4984193;28;20174;-72
2023/02/25 11:15:54;;;;;;;7.93;1.43;;;;;;;;;;4984506;28;20420;-73
2023/02/25 11:18:25;;;;;;;2.90;1.20;;;;;;;;;;4982298;28;20432;-72
2023/02/25 11:20:53;;;;;;;3.50;1.27;;;;;;;;;;4983476;28;20204;-72
2023/02/25 11:23:26;;;;;;;4.13;1.17;;;;;;;;;;4967506;28;20425;-72
2023/02/25 11:25:52;;;;;;;5.33;1.30;;;;;;;;;;4982381;28;21035;-73
2023/02/25 11:28:30;;;;;;;4.17;1.33;;;;;;;;;;4970417;28;20445;-72
2023/02/25 11:31:04;;;;;;;8.77;1.50;;;;;;;;;;4984306;28;20464;-73
2023/02/25 11:33:32;;;;;;;3.90;0.90;;;;;;;;;;4969286;28;20436;-72
2023/02/25 11:36:01;;;;;;;4.97;1.80;;;;;;;;;;4983808;28;20409;-72
2023/02/25 11:38:36;;;;;;;4.30;1.07;;;;;;;;;;4960737;28;20425;-72
2023/02/25 11:41:02;;;;;;;4.97;1.53;;;;;;;;;;4981938;28;20904;-72
2023/02/25 11:43:37;;;;;;;4.07;0.90;;;;;;;;;;4980518;28;20424;-72
2023/02/25 11:46:07;;;;;;;3.57;1.00;;;;;;;;;;4994206;23;20252;-69
2023/02/25 11:48:51;;;;;;;4.73;1.23;;;;;;;;;;4996714;28;20439;-68
2023/02/25 11:51:23;;;;;;;3.80;1.10;;;;;;;;;;4999773;28;20491;-68
2023/02/25 11:54:07;;;;;;;4.30;1.10;;;;;;;;;;4997883;28;20433;-68
2023/02/25 11:56:35;;;;;;;2.50;1.10;;;;;;;;;;5003500;28;20440;-68
2023/02/25 11:59:11;;;;;;;4.87;1.23;;;;;;;;;;4998042;28;20445;-67
2023/02/25 12:01:42;;;;;;;2.33;1.03;;;;;;;;;;5002367;28;20511;-68
2023/02/25 12:04:26;;;;;;;4.73;0.90;;;;;;;;;;4988821;28;20451;-68
2023/02/25 12:07:06;;;;;;;4.83;0.93;;;;;;;;;;4999965;28;20913;-68
2023/02/25 12:09:37;;;;;;;2.10;0.70;;;;;;;;;;5007342;28;20459;-68
2023/02/25 12:12:15;;;;;;;6.03;1.50;;;;;;;;;;5015754;28;20469;-67
2023/02/25 12:14:43;;;;;;;9.23;1.70;;;;;;;;;;4999084;28;20516;-68
2023/02/25 12:17:26;;;;;;;3.27;1.00;;;;;;;;;;4995600;28;20953;-68
2023/02/25 12:20:03;;;;;;;3.30;0.70;;;;;;;;;;4994834;28;20432;-68
2023/02/25 12:22:46;;;;;;;4.43;1.50;;;;;;;;;;4998459;28;20959;-68
2023/02/25 12:25:21;;;;;;;3.60;1.30;;;;;;;;;;4998789;28;20424;-68
2023/02/25 12:27:52;;;;;;;4.60;1.30;;;;;;;;;;4997721;28;20423;-68
2023/02/25 12:30:49;;;;;;;2.80;1.00;;;;;;;;;;4998020;28;20439;-68
2023/02/25 12:33:33;;;;;;;2.03;0.93;;;;;;;;;;4933126;28;20503;-68
2023/02/25 12:36:17;;;;;;;4.50;1.50;;;;;;;;;;4987907;28;20446;-68
2023/02/25 12:39:03;;;;;;;7.97;1.33;;;;;;;;;;4981803;28;20479;-69
2023/02/25 12:41:44;;;;;;;5.37;1.27;;;;;;;;;;4995693;28;20431;-68
2023/02/25 12:44:13;;;;;;;8.03;1.70;;;;;;;;;;4996406;28;20417;-69
2023/02/25 12:46:54;;;;;;;6.03;1.43;;;;;;;;;;4987258;28;20472;-69
2023/02/25 12:49:22;;;;;;;2.60;1.30;;;;;;;;;;4994595;28;20471;-68
2023/02/25 12:52:06;;;;;;;4.87;1.30;;;;;;;;;;4992353;28;20480;-69
2023/02/25 12:54:37;;;;;;;5.37;1.70;;;;;;;;;;4994162;28;20448;-69
2023/02/25 12:57:06;;;;;;;5.20;1.20;;;;;;;;;;5010410;28;20529;-69
2023/02/25 12:59:43;;;;;;;6.37;1.10;;;;;;;;;;4991793;28;20467;-69
2023/02/25 13:02:11;;;;;;;7.47;1.60;;;;;;;;;;4997636;28;20409;-69
2023/02/25 13:04:42;;;;;;;8.53;1.50;;;;;;;;;;4997121;28;20867;-70
2023/02/25 13:07:23;;;;;;;2.73;1.27;;;;;;;;;;4992863;28;20457;-69
2023/02/25 13:10:07;;;;;;;4.37;1.57;;;;;;;;;;4995314;28;20951;-69
2023/02/25 13:12:47;;;;;;;4.77;1.67;;;;;;;;;;4988051;28;20471;-69
2023/02/25 13:15:17;;;;;;;5.17;1.20;;;;;;;;;;4993650;28;20513;-68
2023/02/25 13:18:02;;;;;;;3.63;1.20;;;;;;;;;;4989927;28;20421;-68
2023/02/25 13:20:52;;;;;;;2.80;1.20;;;;;;;;;;5007747;28;21196;-69
2023/02/25 13:23:24;;;;;;;4.33;1.30;;;;;;;;;;5003629;28;20443;-68
2023/02/25 13:26:04;;;;;;;3.27;1.20;;;;;;;;;;4985435;28;20475;-69
2023/02/25 13:28:53;;;;;;;5.13;1.10;;;;;;;;;;4997150;28;20507;-69
2023/02/25 13:31:25;;;;;;;3.13;1.10;;;;;;;;;;4995857;28;20460;-70
2023/02/25 13:34:08;;;;;;;2.73;1.20;;;;;;;;;;4996009;28;20452;-69
2023/02/25 13:36:41;;;;;;;2.70;0.87;;;;;;;;;;4998716;28;20929;-70
2023/02/25 13:39:09;;;;;;;5.40;1.10;;;;;;;;;;4993735;28;20936;-69
2023/02/25 13:41:50;;;;;;;3.17;1.57;;;;;;;;;;4995493;28;20631;-69
2023/02/25 13:44:53;;;;;;;2.33;0.97;;;;;;;;;;4990786;28;20507;-69
2023/02/25 13:47:20;;;;;;;4.37;1.20;;;;;;;;;;4941656;28;20466;-70
2023/02/25 13:49:57;;;;;;;2.90;1.40;;;;;;;;;;4925220;29;20427;-69
2023/02/25 13:52:41;;;;;;;4.90;1.47;;;;;;;;;;4969488;28;20483;-69
2023/02/25 13:55:25;;;;;;;3.93;1.87;;;;;;;;;;4995936;28;20519;-70
2023/02/25 13:58:02;;;;;;;3.33;1.20;;;;;;;;;;4995239;28;20420;-68
2023/02/25 14:00:34;;;;;;;6.80;1.40;;;;;;;;;;4995552;28;20454;-70
2023/02/25 14:03:02;;;;;;;4.23;1.20;;;;;;;;;;5009277;28;20964;-69
2023/02/25 14:05:49;;;;;;;8.90;1.70;;;;;;;;;;5012078;28;20515;-70
2023/02/25 14:08:20;;;;;;;6.87;1.53;;;;;;;;;;4992608;28;20512;-71
2023/02/25 14:10:45;;;;;;;5.63;1.97;;;;;;;;;;4995898;28;20456;-71
2023/02/25 14:13:38;;;;;;;4.23;1.30;;;;;;;;;;4997781;28;20431;-71
2023/02/25 14:16:06;;;;;;;4.70;1.30;;;;;;;;;;4985928;28;20216;-69
2023/02/25 14:18:44;;;;;;;5.40;1.60;;;;;;;;;;4992569;28;20411;-70
2023/02/25 14:21:18;;;;;;;4.60;1.33;;;;;;;;;;4996403;28;20458;-71
2023/02/25 14:23:51;;;;;;;4.50;1.20;;;;;;;;;;5007589;28;20486;-71
2023/02/25 14:26:21;;;;;;;5.83;1.70;;;;;;;;;;5003186;28;20513;-71
2023/02/25 14:28:59;;;;;;;4.43;1.40;;;;;;;;;;4996146;28;20582;-71
2023/02/25 14:31:32;;;;;;;5.17;1.77;;;;;;;;;;4997740;28;20495;-71
2023/02/25 14:34:00;;;;;;;5.23;1.50;;;;;;;;;;4998724;28;20431;-70
2023/02/25 14:36:25;;;;;;;6.40;1.87;;;;;;;;;;4994592;28;20451;-70
2023/02/25 14:38:59;;;;;;;6.50;1.57;;;;;;;;;;4998565;28;20427;-70
2023/02/25 14:41:31;;;;;;;2.90;1.50;;;;;;;;;;5000813;28;20192;-71
2023/02/25 14:43:59;;;;;;;4.70;1.50;;;;;;;;;;4999743;28;20500;-72
2023/02/25 14:46:33;;;;;;;4.07;1.53;;;;;;;;;;4998762;28;20591;-70
2023/02/25 14:49:04;;;;;;;4.33;1.33;;;;;;;;;;4996866;28;20514;-72
2023/02/25 14:51:47;;;;;;;6.83;1.60;;;;;;;;;;4998303;28;20484;-72
2023/02/25 14:54:31;;;;;;;3.23;1.43;;;;;;;;;;4994152;28;20433;-70
2023/02/25 14:57:06;;;;;;;5.23;1.43;;;;;;;;;;4993728;28;20503;-70